createdAt,value
2018-04-19T00:00:45.367Z,17.49
2018-04-19T00:01:46.095Z,17.45
2018-04-19T00:02:46.826Z,17.45
2018-04-19T00:03:47.585Z,17.41
2018-04-19T00:04:48.321Z,17.42
2018-04-19T00:05:49.047Z,17.42
2018-04-19T00:06:49.798Z,17.45
2018-04-19T00:07:50.525Z,17.39
2018-04-19T00:08:51.251Z,17.38
2018-04-19T00:09:51.990Z,17.41
2018-04-19T00:10:52.715Z,17.39
2018-04-19T00:11:53.532Z,17.39
2018-04-19T00:12:54.244Z,17.33
2018-04-19T00:13:54.978Z,17.38
2018-04-19T00:14:55.740Z,17.34
2018-04-19T00:15:56.472Z,17.31
2018-04-19T00:16:57.196Z,17.30
2018-04-19T00:17:57.932Z,17.29
2018-04-19T00:18:58.658Z,17.29
2018-04-19T00:19:59.416Z,17.22
2018-04-19T00:21:00.143Z,17.24
2018-04-19T00:22:00.869Z,17.29
2018-04-19T00:23:01.594Z,17.26
2018-04-19T00:24:02.324Z,17.23
2018-04-19T00:25:03.059Z,17.15
2018-04-19T00:26:03.784Z,17.14
2018-04-19T00:27:04.510Z,17.05
2018-04-19T00:28:05.237Z,17.08
2018-04-19T00:29:05.988Z,17.09
2018-04-19T00:30:06.716Z,17.11
2018-04-19T00:31:07.467Z,17.08
2018-04-19T00:32:08.193Z,17.05
2018-04-19T00:33:08.921Z,17.02
2018-04-19T00:34:09.648Z,16.99
2018-04-19T00:35:10.375Z,16.96
2018-04-19T00:36:11.105Z,16.93
2018-04-19T00:37:11.855Z,17.05
2018-04-19T00:38:12.593Z,16.99
2018-04-19T00:39:13.319Z,16.97
2018-04-19T00:40:14.058Z,16.94
2018-04-19T00:41:14.820Z,16.90
2018-04-19T00:42:15.569Z,16.91
2018-04-19T00:43:16.296Z,16.84
2018-04-19T00:44:17.047Z,16.89
2018-04-19T00:45:17.774Z,16.91
2018-04-19T00:46:18.512Z,16.87
2018-04-19T00:47:19.239Z,16.90
2018-04-19T00:48:19.991Z,16.87
2018-04-19T00:49:20.717Z,16.78
2018-04-19T00:50:21.446Z,16.89
2018-04-19T00:51:22.196Z,16.74
2018-04-19T00:52:22.921Z,16.75
2018-04-19T00:53:23.646Z,16.78
2018-04-19T00:54:24.375Z,16.75
2018-04-19T00:55:25.125Z,16.74
2018-04-19T00:56:25.873Z,16.68
2018-04-19T00:57:26.600Z,16.71
2018-04-19T00:58:27.338Z,16.66
2018-04-19T00:59:28.063Z,16.61
2018-04-19T01:00:28.788Z,16.72
2018-04-19T01:01:29.514Z,16.74
2018-04-19T01:02:30.240Z,16.68
2018-04-19T01:03:30.982Z,16.66
2018-04-19T01:04:31.704Z,16.61
2018-04-19T01:05:32.455Z,16.58
2018-04-19T01:06:33.200Z,16.57
2018-04-19T01:07:33.937Z,16.64
2018-04-19T01:08:34.662Z,16.56
2018-04-19T01:09:35.410Z,16.49
2018-04-19T01:10:36.147Z,16.51
2018-04-19T01:11:36.872Z,16.58
2018-04-19T01:12:37.617Z,16.49
2018-04-19T01:13:38.345Z,16.50
2018-04-19T01:14:39.069Z,16.56
2018-04-19T01:15:39.796Z,16.54
2018-04-19T01:16:40.558Z,16.56
2018-04-19T01:17:41.287Z,16.53
2018-04-19T01:18:42.021Z,16.51
2018-04-19T01:19:42.798Z,16.47
2018-04-19T01:20:43.522Z,16.46
2018-04-19T01:21:44.269Z,16.42
2018-04-19T01:22:45.021Z,16.43
2018-04-19T01:23:45.781Z,16.36
2018-04-19T01:24:46.552Z,16.42
2018-04-19T01:25:47.278Z,16.39
2018-04-19T01:26:48.006Z,16.35
2018-04-19T01:27:48.766Z,16.39
2018-04-19T01:28:49.490Z,16.43
2018-04-19T01:29:50.229Z,16.35
2018-04-19T01:30:50.952Z,16.36
2018-04-19T01:31:51.676Z,16.36
2018-04-19T01:32:52.401Z,16.36
2018-04-19T01:33:53.130Z,16.39
2018-04-19T01:34:53.845Z,16.39
2018-04-19T01:35:54.560Z,16.39
2018-04-19T01:36:55.285Z,16.39
2018-04-19T01:37:56.001Z,16.35
2018-04-19T01:38:56.716Z,16.35
2018-04-19T01:39:57.431Z,16.38
2018-04-19T01:40:58.146Z,16.36
2018-04-19T01:41:58.869Z,16.36
2018-04-19T01:42:59.575Z,16.38
2018-04-19T01:44:00.290Z,16.26
2018-04-19T01:45:01.018Z,16.31
2018-04-19T01:46:01.733Z,16.29
2018-04-19T01:47:02.451Z,16.31
2018-04-19T01:48:03.175Z,16.33
2018-04-19T01:49:03.890Z,16.24
2018-04-19T01:50:04.605Z,16.28
2018-04-19T01:51:05.321Z,16.33
2018-04-19T01:52:06.035Z,16.28
2018-04-19T01:53:06.753Z,16.33
2018-04-19T01:54:07.464Z,16.33
2018-04-19T01:55:08.179Z,16.32
2018-04-19T01:56:08.894Z,16.29
2018-04-19T01:57:09.609Z,16.21
2018-04-19T01:58:10.336Z,16.21
2018-04-19T01:59:11.051Z,16.23
2018-04-19T02:00:11.768Z,16.20
2018-04-19T02:01:12.483Z,16.21
2018-04-19T02:02:13.198Z,16.16
2018-04-19T02:03:13.917Z,16.28
2018-04-19T02:04:14.627Z,16.21
2018-04-19T02:05:15.352Z,16.21
2018-04-19T02:06:16.069Z,16.20
2018-04-19T02:07:16.784Z,16.20
2018-04-19T02:08:17.500Z,16.23
2018-04-19T02:09:18.215Z,16.28
2018-04-19T02:10:18.943Z,16.21
2018-04-19T02:11:19.660Z,16.23
2018-04-19T02:12:20.385Z,16.23
2018-04-19T02:13:21.100Z,16.04
2018-04-19T02:14:21.816Z,16.09
2018-04-19T02:15:22.528Z,16.13
2018-04-19T02:16:23.240Z,16.05
2018-04-19T02:17:23.953Z,16.08
2018-04-19T02:18:24.667Z,16.09
2018-04-19T02:19:25.393Z,16.12
2018-04-19T02:20:26.106Z,16.12
2018-04-19T02:21:26.820Z,16.01
2018-04-19T02:22:27.533Z,16.01
2018-04-19T02:23:28.248Z,16.01
2018-04-19T02:24:28.961Z,16.00
2018-04-19T02:25:29.674Z,15.97
2018-04-19T02:26:30.402Z,16.00
2018-04-19T02:27:31.116Z,15.98
2018-04-19T02:28:31.834Z,15.97
2018-04-19T02:29:32.548Z,16.01
2018-04-19T02:30:33.274Z,16.02
2018-04-19T02:31:33.989Z,15.98
2018-04-19T02:32:34.714Z,15.98
2018-04-19T02:33:35.427Z,16.02
2018-04-19T02:34:36.154Z,15.98
2018-04-19T02:35:36.866Z,15.95
2018-04-19T02:36:37.571Z,15.91
2018-04-19T02:37:38.285Z,15.88
2018-04-19T02:38:38.999Z,15.84
2018-04-19T02:39:39.718Z,15.90
2018-04-19T02:40:40.428Z,15.80
2018-04-19T02:41:41.142Z,15.77
2018-04-19T02:42:41.855Z,15.90
2018-04-19T02:43:42.568Z,15.84
2018-04-19T02:44:43.282Z,15.82
2018-04-19T02:45:44.011Z,15.84
2018-04-19T02:46:44.738Z,15.76
2018-04-19T02:47:45.464Z,15.80
2018-04-19T02:48:46.176Z,15.77
2018-04-19T02:49:46.893Z,15.70
2018-04-19T02:50:47.602Z,15.64
2018-04-19T02:51:48.317Z,15.62
2018-04-19T02:52:49.030Z,15.65
2018-04-19T02:53:49.743Z,15.62
2018-04-19T02:54:50.458Z,15.67
2018-04-19T02:55:51.171Z,15.61
2018-04-19T02:56:51.885Z,15.55
2018-04-19T02:57:52.599Z,15.57
2018-04-19T02:58:53.311Z,15.55
2018-04-19T02:59:54.025Z,15.55
2018-04-19T03:00:54.739Z,15.57
2018-04-19T03:01:55.456Z,15.47
2018-04-19T03:02:56.165Z,15.51
2018-04-19T03:03:56.900Z,15.46
2018-04-19T03:04:57.609Z,15.52
2018-04-19T03:05:58.333Z,15.46
2018-04-19T03:06:59.060Z,15.42
2018-04-19T03:07:59.791Z,15.37
2018-04-19T03:09:00.517Z,15.47
2018-04-19T03:10:01.241Z,15.40
2018-04-19T03:11:01.965Z,15.43
2018-04-19T03:12:02.684Z,15.52
2018-04-19T03:13:03.396Z,15.42
2018-04-19T03:14:04.117Z,15.39
2018-04-19T03:15:04.836Z,15.42
2018-04-19T03:16:05.560Z,15.40
2018-04-19T03:17:06.274Z,15.28
2018-04-19T03:18:07.004Z,15.42
2018-04-19T03:19:07.719Z,15.31
2018-04-19T03:20:08.435Z,15.33
2018-04-19T03:21:09.150Z,15.25
2018-04-19T03:22:09.863Z,15.15
2018-04-19T03:23:10.578Z,15.18
2018-04-19T03:24:11.292Z,15.17
2018-04-19T03:25:12.004Z,15.15
2018-04-19T03:26:12.729Z,15.17
2018-04-19T03:27:13.456Z,15.17
2018-04-19T03:28:14.171Z,15.04
2018-04-19T03:29:14.885Z,15.06
2018-04-19T03:30:15.613Z,15.04
2018-04-19T03:31:16.327Z,15.00
2018-04-19T03:32:17.042Z,15.00
2018-04-19T03:33:17.754Z,14.99
2018-04-19T03:34:18.468Z,15.03
2018-04-19T03:35:19.182Z,14.91
2018-04-19T03:36:19.894Z,14.96
2018-04-19T03:37:20.621Z,14.91
2018-04-19T03:38:21.334Z,14.85
2018-04-19T03:39:22.049Z,14.88
2018-04-19T03:40:22.763Z,14.88
2018-04-19T03:41:23.494Z,14.82
2018-04-19T03:42:24.209Z,14.81
2018-04-19T03:43:24.925Z,14.79
2018-04-19T03:44:25.650Z,14.77
2018-04-19T03:45:26.363Z,14.81
2018-04-19T03:46:27.077Z,14.69
2018-04-19T03:47:27.790Z,14.70
2018-04-19T03:48:28.504Z,14.68
2018-04-19T03:49:29.221Z,14.65
2018-04-19T03:50:29.948Z,14.65
2018-04-19T03:51:30.669Z,14.54
2018-04-19T03:52:31.386Z,14.55
2018-04-19T03:53:32.100Z,14.45
2018-04-19T03:54:32.814Z,14.43
2018-04-19T03:55:33.528Z,14.41
2018-04-19T03:56:34.253Z,14.40
2018-04-19T03:57:34.982Z,14.37
2018-04-19T03:58:35.705Z,14.33
2018-04-19T03:59:36.422Z,14.30
2018-04-19T04:00:37.148Z,14.29
2018-04-19T04:01:37.861Z,14.30
2018-04-19T04:02:38.575Z,14.29
2018-04-19T04:03:39.309Z,14.32
2018-04-19T04:04:40.030Z,14.20
2018-04-19T04:05:40.746Z,14.20
2018-04-19T04:06:41.462Z,14.15
2018-04-19T04:07:42.178Z,14.10
2018-04-19T04:08:42.893Z,14.20
2018-04-19T04:09:43.608Z,14.11
2018-04-19T04:10:44.322Z,14.22
2018-04-19T04:11:45.037Z,14.10
2018-04-19T04:12:45.754Z,14.08
2018-04-19T04:13:46.478Z,14.11
2018-04-19T04:14:47.209Z,14.07
2018-04-19T04:15:47.933Z,14.15
2018-04-19T04:16:48.648Z,14.08
2018-04-19T04:17:49.363Z,14.10
2018-04-19T04:18:50.079Z,14.05
2018-04-19T04:19:50.794Z,14.00
2018-04-19T04:20:51.511Z,14.00
2018-04-19T04:21:52.226Z,14.11
2018-04-19T04:22:52.941Z,14.04
2018-04-19T04:23:53.657Z,14.05
2018-04-19T04:24:54.386Z,14.03
2018-04-19T04:25:55.116Z,13.99
2018-04-19T04:26:55.830Z,13.93
2018-04-19T04:27:56.548Z,13.95
2018-04-19T04:28:57.263Z,13.96
2018-04-19T04:29:57.979Z,13.89
2018-04-19T04:30:58.697Z,13.95
2018-04-19T04:31:59.415Z,13.92
2018-04-19T04:33:00.132Z,14.03
2018-04-19T04:34:00.849Z,14.00
2018-04-19T04:35:01.565Z,14.00
2018-04-19T04:36:02.282Z,14.04
2018-04-19T04:37:03.000Z,13.92
2018-04-19T04:38:03.716Z,13.93
2018-04-19T04:39:04.432Z,13.85
2018-04-19T04:40:05.148Z,13.92
2018-04-19T04:41:05.864Z,13.87
2018-04-19T04:42:06.588Z,13.93
2018-04-19T04:43:07.302Z,13.85
2018-04-19T04:44:08.017Z,13.90
2018-04-19T04:45:08.748Z,13.87
2018-04-19T04:46:09.474Z,13.79
2018-04-19T04:47:10.193Z,13.79
2018-04-19T04:48:10.912Z,13.90
2018-04-19T04:49:11.644Z,13.90
2018-04-19T04:50:12.373Z,13.90
2018-04-19T04:51:13.098Z,13.85
2018-04-19T04:52:13.821Z,13.93
2018-04-19T04:53:14.553Z,13.95
2018-04-19T04:54:15.270Z,13.92
2018-04-19T04:55:16.000Z,13.97
2018-04-19T04:56:16.717Z,14.03
2018-04-19T04:57:17.436Z,14.04
2018-04-19T04:58:18.166Z,13.97
2018-04-19T04:59:18.884Z,14.03
2018-04-19T05:00:19.613Z,14.08
2018-04-19T05:01:20.331Z,14.11
2018-04-19T05:02:21.049Z,14.03
2018-04-19T05:03:21.770Z,14.04
2018-04-19T05:04:22.492Z,14.07
2018-04-19T05:05:23.212Z,14.18
2018-04-19T05:06:23.929Z,14.12
2018-04-19T05:07:24.648Z,14.12
2018-04-19T05:08:25.366Z,14.15
2018-04-19T05:09:26.081Z,14.22
2018-04-19T05:10:26.801Z,14.26
2018-04-19T05:11:27.530Z,14.26
2018-04-19T05:12:28.249Z,14.30
2018-04-19T05:13:28.967Z,14.28
2018-04-19T05:14:29.689Z,14.30
2018-04-19T05:15:30.400Z,14.35
2018-04-19T05:16:31.119Z,14.37
2018-04-19T05:17:31.838Z,14.41
2018-04-19T05:18:32.555Z,14.44
2018-04-19T05:19:33.273Z,14.47
2018-04-19T05:20:34.004Z,14.51
2018-04-19T05:21:34.723Z,14.51
2018-04-19T05:22:35.443Z,14.48
2018-04-19T05:23:36.161Z,14.55
2018-04-19T05:24:36.891Z,14.55
2018-04-19T05:25:37.622Z,14.65
2018-04-19T05:26:38.342Z,14.70
2018-04-19T05:27:39.060Z,14.72
2018-04-19T05:28:39.788Z,14.78
2018-04-19T05:29:40.519Z,14.82
2018-04-19T05:30:41.266Z,14.81
2018-04-19T05:31:42.020Z,14.85
2018-04-19T05:32:42.717Z,14.85
2018-04-19T05:33:43.435Z,14.91
2018-04-19T05:34:44.154Z,14.97
2018-04-19T05:35:44.877Z,14.97
2018-04-19T05:36:45.594Z,14.94
2018-04-19T05:37:46.324Z,15.09
2018-04-19T05:38:47.044Z,15.19
2018-04-19T05:39:47.762Z,15.19
2018-04-19T05:40:48.481Z,15.19
2018-04-19T05:41:49.197Z,15.29
2018-04-19T05:42:49.919Z,15.28
2018-04-19T05:43:50.638Z,15.39
2018-04-19T05:44:51.356Z,15.39
2018-04-19T05:45:52.075Z,15.44
2018-04-19T05:46:52.793Z,15.52
2018-04-19T05:47:53.526Z,15.33
2018-04-19T05:48:54.257Z,15.47
2018-04-19T05:49:54.976Z,15.46
2018-04-19T05:50:55.712Z,15.55
2018-04-19T05:51:56.432Z,15.57
2018-04-19T05:52:57.147Z,15.57
2018-04-19T05:53:57.878Z,15.61
2018-04-19T05:54:58.595Z,15.76
2018-04-19T05:55:59.328Z,15.73
2018-04-19T05:57:00.047Z,15.77
2018-04-19T05:58:00.765Z,15.79
2018-04-19T05:59:01.497Z,15.88
2018-04-19T06:00:02.216Z,15.88
2018-04-19T06:01:02.950Z,15.97
2018-04-19T06:02:03.682Z,15.98
2018-04-19T06:03:04.441Z,15.97
2018-04-19T06:04:05.126Z,16.09
2018-04-19T06:05:05.846Z,16.10
2018-04-19T06:06:06.562Z,16.17
2018-04-19T06:07:07.283Z,16.15
2018-04-19T06:08:08.016Z,16.33
2018-04-19T06:09:08.734Z,16.31
2018-04-19T06:10:09.454Z,16.33
2018-04-19T06:11:10.178Z,16.41
2018-04-19T06:12:10.909Z,16.51
2018-04-19T06:13:11.631Z,16.58
2018-04-19T06:14:12.352Z,16.64
2018-04-19T06:15:13.076Z,16.60
2018-04-19T06:16:13.794Z,16.66
2018-04-19T06:17:14.515Z,16.72
2018-04-19T06:18:15.250Z,16.83
2018-04-19T06:19:15.969Z,16.94
2018-04-19T06:20:16.696Z,16.91
2018-04-19T06:21:17.427Z,16.93
2018-04-19T06:22:18.148Z,16.97
2018-04-19T06:23:18.880Z,17.08
2018-04-19T06:24:19.600Z,17.04
2018-04-19T06:25:20.324Z,17.11
2018-04-19T06:26:21.046Z,17.20
2018-04-19T06:27:21.768Z,17.31
2018-04-19T06:28:22.500Z,17.31
2018-04-19T06:29:23.221Z,17.36
2018-04-19T06:30:23.980Z,17.38
2018-04-19T06:31:24.677Z,17.49
2018-04-19T06:32:25.399Z,17.60
2018-04-19T06:33:26.120Z,17.70
2018-04-19T06:34:26.855Z,17.79
2018-04-19T06:35:27.580Z,17.76
2018-04-19T06:36:28.303Z,17.80
2018-04-19T06:37:29.027Z,17.83
2018-04-19T06:38:29.751Z,17.98
2018-04-19T06:39:30.475Z,18.15
2018-04-19T06:40:31.199Z,18.11
2018-04-19T06:41:31.935Z,18.29
2018-04-19T06:42:32.648Z,18.41
2018-04-19T06:43:33.373Z,18.44
2018-04-19T06:44:34.100Z,18.44
2018-04-19T06:45:34.836Z,18.47
2018-04-19T06:46:35.560Z,18.70
2018-04-19T06:47:36.290Z,18.83
2018-04-19T06:48:37.018Z,18.83
2018-04-19T06:49:37.746Z,18.98
2018-04-19T06:50:38.472Z,19.07
2018-04-19T06:51:39.201Z,19.15
2018-04-19T06:52:39.930Z,19.30
2018-04-19T06:53:40.657Z,19.31
2018-04-19T06:54:41.386Z,19.34
2018-04-19T06:55:42.129Z,19.51
2018-04-19T06:56:42.882Z,19.59
2018-04-19T06:57:43.623Z,19.81
2018-04-19T06:58:44.374Z,20.00
2018-04-19T06:59:45.117Z,20.26
2018-04-19T07:00:45.850Z,20.40
2018-04-19T07:01:46.614Z,20.24
2018-04-19T07:02:47.336Z,20.28
2018-04-19T07:03:48.067Z,20.36
2018-04-19T07:04:48.802Z,20.44
2018-04-19T07:05:49.534Z,20.51
2018-04-19T07:06:50.269Z,20.65
2018-04-19T07:07:50.999Z,20.77
2018-04-19T07:08:51.742Z,21.05
2018-04-19T07:09:52.479Z,21.35
2018-04-19T07:10:53.211Z,21.33
2018-04-19T07:11:53.953Z,21.51
2018-04-19T07:12:54.685Z,21.67
2018-04-19T07:13:55.414Z,21.79
2018-04-19T07:14:56.156Z,21.98
2018-04-19T07:15:56.886Z,21.98
2018-04-19T07:16:57.621Z,21.93
2018-04-19T07:17:58.350Z,22.14
2018-04-19T07:18:59.091Z,22.20
2018-04-19T07:19:59.820Z,22.47
2018-04-19T07:21:00.552Z,22.66
2018-04-19T07:22:01.295Z,22.57
2018-04-19T07:23:02.029Z,22.66
2018-04-19T07:24:02.759Z,22.93
2018-04-19T07:25:03.487Z,23.13
2018-04-19T07:26:04.217Z,23.32
2018-04-19T07:27:04.960Z,23.47
2018-04-19T07:28:05.691Z,23.65
2018-04-19T07:29:06.422Z,23.28
2018-04-19T07:30:07.150Z,23.36
2018-04-19T07:31:07.881Z,23.20
2018-04-19T07:32:08.650Z,23.18
2018-04-19T07:33:09.345Z,23.40
2018-04-19T07:34:10.088Z,23.55
2018-04-19T07:35:10.834Z,23.73
2018-04-19T07:36:11.571Z,23.84
2018-04-19T07:37:12.308Z,23.80
2018-04-19T07:38:13.042Z,23.81
2018-04-19T07:39:13.787Z,23.98
2018-04-19T07:40:14.522Z,24.29
2018-04-19T07:41:15.252Z,24.45
2018-04-19T07:42:15.985Z,24.21
2018-04-19T07:43:16.719Z,24.33
2018-04-19T07:44:17.450Z,24.68
2018-04-19T07:45:18.183Z,24.86
2018-04-19T07:46:18.929Z,24.74
2018-04-19T07:47:19.662Z,24.86
2018-04-19T07:48:20.395Z,24.96
2018-04-19T07:49:21.130Z,25.13
2018-04-19T07:50:21.866Z,25.31
2018-04-19T07:51:22.602Z,25.41
2018-04-19T07:52:23.336Z,25.43
2018-04-19T07:53:24.071Z,25.60
2018-04-19T07:54:24.805Z,25.58
2018-04-19T07:55:25.539Z,25.66
2018-04-19T07:56:26.276Z,25.77
2018-04-19T07:57:27.009Z,25.81
2018-04-19T07:58:27.745Z,26.10
2018-04-19T07:59:28.492Z,26.16
2018-04-19T08:00:29.240Z,26.23
2018-04-19T08:01:29.976Z,26.40
2018-04-19T08:02:30.711Z,26.45
2018-04-19T08:03:31.459Z,26.59
2018-04-19T08:04:32.197Z,26.38
2018-04-19T08:05:32.936Z,26.55
2018-04-19T08:06:33.667Z,26.34
2018-04-19T08:07:34.406Z,26.58
2018-04-19T08:08:35.137Z,26.58
2018-04-19T08:09:35.874Z,26.41
2018-04-19T08:10:36.624Z,25.95
2018-04-19T08:11:37.373Z,26.59
2018-04-19T08:12:38.124Z,26.75
2018-04-19T08:13:38.857Z,27.07
2018-04-19T08:14:39.608Z,27.08
2018-04-19T08:15:40.345Z,27.08
2018-04-19T08:16:41.083Z,27.44
2018-04-19T08:17:41.837Z,27.51
2018-04-19T08:18:42.575Z,27.36
2018-04-19T08:19:43.326Z,27.47
2018-04-19T08:20:44.064Z,27.71
2018-04-19T08:21:44.816Z,27.95
2018-04-19T08:22:45.552Z,28.22
2018-04-19T08:23:46.294Z,28.60
2018-04-19T08:24:47.037Z,28.49
2018-04-19T08:25:47.784Z,28.17
2018-04-19T08:26:48.542Z,27.82
2018-04-19T08:27:49.284Z,28.15
2018-04-19T08:28:50.024Z,28.19
2018-04-19T08:29:50.764Z,28.37
2018-04-19T08:30:51.521Z,28.35
2018-04-19T08:31:52.266Z,28.04
2018-04-19T08:32:53.023Z,27.58
2018-04-19T08:33:53.763Z,27.64
2018-04-19T08:34:54.507Z,27.73
2018-04-19T08:35:55.257Z,27.65
2018-04-19T08:36:56.013Z,27.54
2018-04-19T08:37:56.772Z,27.18
2018-04-19T08:38:57.518Z,27.74
2018-04-19T08:39:58.273Z,27.86
2018-04-19T08:40:59.035Z,28.04
2018-04-19T08:41:59.784Z,28.04
2018-04-19T08:43:00.545Z,28.04
2018-04-19T08:44:01.290Z,27.51
2018-04-19T08:45:02.038Z,27.10
2018-04-19T08:46:02.783Z,27.08
2018-04-19T08:47:03.530Z,27.30
2018-04-19T08:48:04.288Z,27.70
2018-04-19T08:49:05.033Z,28.02
2018-04-19T08:50:05.780Z,28.29
2018-04-19T08:51:06.528Z,28.66
2018-04-19T08:52:07.289Z,28.19
2018-04-19T08:53:08.048Z,27.82
2018-04-19T08:54:08.810Z,28.23
2018-04-19T08:55:09.551Z,28.57
2018-04-19T08:56:10.294Z,27.73
2018-04-19T08:57:11.037Z,27.67
2018-04-19T08:58:11.785Z,27.59
2018-04-19T08:59:12.545Z,27.18
2018-04-19T09:00:13.286Z,27.59
2018-04-19T09:01:14.032Z,27.65
2018-04-19T09:02:14.779Z,27.85
2018-04-19T09:03:15.528Z,28.20
2018-04-19T09:04:16.274Z,28.25
2018-04-19T09:05:17.014Z,28.23
2018-04-19T09:06:17.757Z,28.22
2018-04-19T09:07:18.500Z,28.00
2018-04-19T09:08:19.247Z,27.78
2018-04-19T09:09:19.991Z,27.85
2018-04-19T09:10:20.732Z,27.95
2018-04-19T09:11:21.500Z,28.11
2018-04-19T09:12:22.246Z,28.37
2018-04-19T09:13:23.002Z,28.47
2018-04-19T09:14:23.748Z,28.51
2018-04-19T09:15:24.492Z,28.91
2018-04-19T09:16:25.249Z,29.10
2018-04-19T09:17:25.993Z,29.14
2018-04-19T09:18:26.750Z,28.60
2018-04-19T09:19:27.538Z,28.12
2018-04-19T09:20:28.237Z,27.92
2018-04-19T09:21:28.982Z,27.82
2018-04-19T09:22:29.725Z,27.82
2018-04-19T09:23:30.472Z,27.96
2018-04-19T09:24:31.219Z,28.22
2018-04-19T09:25:31.957Z,27.92
2018-04-19T09:26:32.704Z,27.60
2018-04-19T09:27:33.459Z,27.75
2018-04-19T09:28:34.215Z,27.96
2018-04-19T09:29:34.959Z,28.38
2018-04-19T09:30:35.703Z,28.04
2018-04-19T09:31:36.446Z,28.17
2018-04-19T09:32:37.191Z,28.54
2018-04-19T09:33:37.949Z,28.59
2018-04-19T09:34:38.690Z,28.94
2018-04-19T09:35:39.433Z,29.31
2018-04-19T09:36:40.175Z,29.56
2018-04-19T09:37:40.919Z,29.68
2018-04-19T09:38:41.663Z,29.60
2018-04-19T09:39:42.418Z,29.60
2018-04-19T09:40:43.162Z,28.56
2018-04-19T09:41:43.906Z,28.78
2018-04-19T09:42:44.652Z,28.57
2018-04-19T09:43:45.395Z,28.54
2018-04-19T09:44:46.139Z,28.70
2018-04-19T09:45:46.880Z,28.94
2018-04-19T09:46:47.624Z,28.79
2018-04-19T09:47:48.373Z,28.74
2018-04-19T09:48:49.120Z,28.85
2018-04-19T09:49:49.874Z,29.47
2018-04-19T09:50:50.630Z,29.26
2018-04-19T09:52:52.116Z,29.98
2018-04-19T09:53:52.911Z,30.44
2018-04-19T09:54:53.616Z,30.15
2018-04-19T09:55:54.358Z,30.37
2018-04-19T09:56:55.103Z,30.39
2018-04-19T09:57:55.843Z,29.88
2018-04-19T09:58:56.606Z,29.39
2018-04-19T09:59:57.329Z,30.28
2018-04-19T10:00:58.075Z,30.35
2018-04-19T10:01:58.814Z,29.50
2018-04-19T10:02:59.558Z,28.74
2018-04-19T10:04:00.296Z,28.70
2018-04-19T10:05:01.049Z,28.93
2018-04-19T10:06:01.794Z,29.14
2018-04-19T10:07:02.540Z,29.24
2018-04-19T10:08:03.294Z,29.91
2018-04-19T10:09:04.038Z,29.97
2018-04-19T10:10:04.795Z,30.51
2018-04-19T10:11:05.534Z,30.48
2018-04-19T10:12:06.287Z,30.40
2018-04-19T10:13:07.035Z,30.27
2018-04-19T10:14:07.771Z,29.19
2018-04-19T10:15:08.525Z,28.64
2018-04-19T10:16:09.301Z,28.66
2018-04-19T10:17:10.007Z,28.76
2018-04-19T10:18:10.745Z,28.97
2018-04-19T10:19:11.490Z,29.35
2018-04-19T10:20:12.247Z,29.29
2018-04-19T10:21:12.995Z,29.13
2018-04-19T10:22:13.729Z,29.12
2018-04-19T10:23:14.480Z,29.22
2018-04-19T10:24:15.236Z,29.29
2018-04-19T10:25:15.976Z,29.23
2018-04-19T10:26:16.720Z,29.57
2018-04-19T10:27:17.480Z,29.73
2018-04-19T10:28:18.215Z,30.39
2018-04-19T10:29:18.955Z,30.47
2018-04-19T10:30:19.696Z,29.78
2018-04-19T10:31:20.434Z,30.27
2018-04-19T10:32:21.192Z,29.75
2018-04-19T10:33:21.934Z,29.91
2018-04-19T10:34:22.687Z,29.57
2018-04-19T10:35:23.427Z,29.73
2018-04-19T10:36:24.165Z,29.76
2018-04-19T10:37:24.914Z,29.26
2018-04-19T10:38:25.654Z,29.29
2018-04-19T10:39:26.395Z,29.26
2018-04-19T10:40:27.134Z,29.08
2018-04-19T10:41:27.877Z,29.32
2018-04-19T10:42:28.634Z,30.05
2018-04-19T10:43:29.374Z,30.51
2018-04-19T10:44:30.117Z,30.35
2018-04-19T10:45:30.859Z,30.50
2018-04-19T10:46:31.600Z,30.81
2018-04-19T10:47:32.346Z,31.15
2018-04-19T10:48:33.082Z,30.75
2018-04-19T10:49:33.825Z,31.22
2018-04-19T10:50:34.571Z,31.22
2018-04-19T10:51:35.320Z,30.13
2018-04-19T10:52:36.062Z,29.94
2018-04-19T10:53:36.803Z,30.27
2018-04-19T10:54:37.543Z,30.88
2018-04-19T10:55:38.285Z,30.96
2018-04-19T10:56:39.035Z,31.66
2018-04-19T10:57:39.778Z,31.94
2018-04-19T10:58:40.517Z,31.94
2018-04-19T10:59:41.261Z,32.19
2018-04-19T11:00:42.003Z,31.66
2018-04-19T11:01:42.745Z,30.92
2018-04-19T11:02:43.486Z,31.21
2018-04-19T11:03:44.227Z,31.59
2018-04-19T11:04:44.969Z,31.22
2018-04-19T11:05:45.724Z,30.24
2018-04-19T11:06:46.462Z,29.81
2018-04-19T11:07:47.217Z,29.94
2018-04-19T11:08:47.955Z,29.95
2018-04-19T11:09:48.711Z,29.71
2018-04-19T11:10:49.452Z,29.94
2018-04-19T11:11:50.194Z,30.46
2018-04-19T11:12:50.939Z,30.06
2018-04-19T11:13:51.675Z,30.35
2018-04-19T11:14:52.417Z,31.00
2018-04-19T11:15:53.177Z,30.96
2018-04-19T11:16:53.909Z,30.69
2018-04-19T11:17:54.649Z,31.15
2018-04-19T11:18:55.389Z,31.15
2018-04-19T11:19:56.131Z,30.83
2018-04-19T11:20:56.872Z,31.09
2018-04-19T11:21:57.617Z,31.47
2018-04-19T11:22:58.355Z,32.04
2018-04-19T11:23:59.096Z,31.96
2018-04-19T11:24:59.839Z,31.93
2018-04-19T11:26:00.575Z,32.01
2018-04-19T11:27:01.316Z,32.01
2018-04-19T11:28:02.054Z,32.21
2018-04-19T11:29:02.792Z,32.51
2018-04-19T11:30:03.541Z,32.48
2018-04-19T11:31:04.292Z,31.99
2018-04-19T11:32:05.035Z,31.92
2018-04-19T11:33:05.783Z,32.12
2018-04-19T11:34:06.535Z,32.46
2018-04-19T11:35:07.279Z,33.05
2018-04-19T11:36:08.029Z,33.30
2018-04-19T11:37:08.767Z,33.61
2018-04-19T11:38:09.511Z,33.31
2018-04-19T11:39:10.263Z,33.62
2018-04-19T11:40:10.997Z,32.90
2018-04-19T11:41:11.735Z,33.43
2018-04-19T11:42:12.480Z,32.34
2018-04-19T11:43:13.214Z,32.64
2018-04-19T11:44:13.962Z,32.56
2018-04-19T11:45:14.700Z,32.48
2018-04-19T11:46:15.437Z,32.85
2018-04-19T11:47:16.177Z,32.95
2018-04-19T11:48:16.915Z,32.51
2018-04-19T11:49:17.655Z,33.09
2018-04-19T11:50:18.394Z,33.20
2018-04-19T11:51:19.145Z,32.89
2018-04-19T11:52:19.880Z,33.02
2018-04-19T11:53:20.617Z,33.02
2018-04-19T11:54:21.359Z,32.95
2018-04-19T11:55:22.099Z,33.39
2018-04-19T11:56:22.837Z,32.80
2018-04-19T11:57:23.576Z,31.99
2018-04-19T11:58:24.319Z,32.19
2018-04-19T11:59:25.064Z,32.30
2018-04-19T12:00:25.802Z,32.07
2018-04-19T12:01:26.540Z,32.40
2018-04-19T12:02:27.277Z,32.95
2018-04-19T12:03:28.015Z,33.40
2018-04-19T12:04:28.754Z,33.84
2018-04-19T12:05:29.505Z,34.54
2018-04-19T12:06:30.243Z,34.11
2018-04-19T12:07:31.004Z,33.17
2018-04-19T12:08:31.719Z,33.32
2018-04-19T12:09:32.460Z,33.52
2018-04-19T12:10:33.210Z,33.90
2018-04-19T12:11:33.951Z,34.20
2018-04-19T12:12:34.686Z,34.11
2018-04-19T12:13:35.486Z,32.52
2018-04-19T12:14:36.167Z,32.34
2018-04-19T12:15:36.904Z,32.78
2018-04-19T12:16:37.642Z,32.65
2018-04-19T12:17:38.384Z,31.97
2018-04-19T12:18:39.133Z,32.58
2018-04-19T12:19:39.870Z,33.42
2018-04-19T12:20:40.610Z,33.94
2018-04-19T12:21:41.347Z,33.87
2018-04-19T12:22:42.089Z,34.02
2018-04-19T12:23:42.837Z,34.13
2018-04-19T12:24:43.588Z,34.51
2018-04-19T12:25:44.325Z,34.01
2018-04-19T12:26:45.075Z,34.01
2018-04-19T12:27:45.814Z,34.35
2018-04-19T12:28:46.564Z,33.76
2018-04-19T12:29:47.305Z,34.01
2018-04-19T12:30:48.052Z,33.80
2018-04-19T12:31:48.791Z,33.83
2018-04-19T12:32:49.529Z,34.18
2018-04-19T12:33:50.269Z,33.52
2018-04-19T12:34:51.008Z,32.52
2018-04-19T12:35:51.757Z,32.78
2018-04-19T12:36:52.492Z,32.21
2018-04-19T12:37:53.233Z,32.36
2018-04-19T12:38:53.971Z,32.36
2018-04-19T12:39:54.706Z,32.86
2018-04-19T12:40:55.442Z,32.73
2018-04-19T12:41:56.180Z,32.80
2018-04-19T12:42:56.924Z,33.68
2018-04-19T12:43:57.680Z,33.98
2018-04-19T12:44:58.427Z,33.74
2018-04-19T12:45:59.164Z,33.62
2018-04-19T12:46:59.899Z,32.26
2018-04-19T12:48:00.638Z,32.85
2018-04-19T12:49:01.377Z,32.67
2018-04-19T12:50:02.118Z,32.60
2018-04-19T12:51:02.868Z,32.64
2018-04-19T12:52:03.607Z,32.60
2018-04-19T12:53:04.344Z,32.26
2018-04-19T12:54:05.085Z,32.12
2018-04-19T12:55:05.824Z,32.58
2018-04-19T12:56:06.577Z,32.41
2018-04-19T12:57:07.330Z,32.83
2018-04-19T12:58:08.070Z,32.40
2018-04-19T12:59:08.809Z,33.00
2018-04-19T13:00:09.551Z,33.55
2018-04-19T13:01:10.293Z,33.96
2018-04-19T13:02:11.034Z,34.14
2018-04-19T13:03:11.771Z,34.35